createdAt,value
2017-11-18T00:06:32.044Z,-60
2017-11-18T00:16:32.117Z,-60
2017-11-18T00:26:32.046Z,-60
2017-11-18T00:36:31.999Z,-60
2017-11-18T00:46:32.095Z,-59
2017-11-18T00:56:32.015Z,-58
2017-11-18T01:06:32.138Z,-58
2017-11-18T01:16:32.116Z,-59
2017-11-18T01:26:32.135Z,-60
2017-11-18T01:36:32.089Z,-58
2017-11-18T01:46:32.374Z,-59
2017-11-18T01:56:32.126Z,-59
2017-11-18T02:06:32.341Z,-60
2017-11-18T02:16:32.507Z,-59
2017-11-18T02:26:32.229Z,-60
2017-11-18T02:36:32.158Z,-58
2017-11-18T02:46:32.165Z,-60
2017-11-18T02:56:32.245Z,-60
2017-11-18T03:06:32.528Z,-59
2017-11-18T03:16:32.199Z,-60
2017-11-18T03:26:32.209Z,-60
2017-11-18T03:36:32.196Z,-59
2017-11-18T03:46:32.252Z,-61
2017-11-18T03:56:32.265Z,-60
2017-11-18T04:06:32.272Z,-60
2017-11-18T04:16:33.094Z,-58
2017-11-18T04:26:32.599Z,-59
2017-11-18T04:36:32.497Z,-59
2017-11-18T04:46:32.279Z,-59
2017-11-18T04:56:32.252Z,-59
2017-11-18T05:06:32.299Z,-60
2017-11-18T05:16:32.376Z,-59
2017-11-18T05:26:32.445Z,-59
2017-11-18T05:36:32.377Z,-60
2017-11-18T05:46:32.363Z,-60
2017-11-18T05:56:32.327Z,-60
2017-11-18T06:06:32.333Z,-58
2017-11-18T06:16:32.326Z,-57
2017-11-18T06:26:32.487Z,-59
2017-11-18T06:36:32.379Z,-60
2017-11-18T06:46:32.330Z,-60
2017-11-18T06:56:32.343Z,-59
2017-11-18T07:06:32.359Z,-58
2017-11-18T07:16:32.400Z,-61
2017-11-18T07:26:32.423Z,-60
2017-11-18T07:36:32.415Z,-60
2017-11-18T07:46:32.400Z,-60
2017-11-18T07:56:32.367Z,-60
2017-11-18T08:06:32.456Z,-61
2017-11-18T08:16:32.515Z,-60
2017-11-18T08:26:32.391Z,-60
2017-11-18T08:36:32.476Z,-60
2017-11-18T08:46:32.505Z,-60
2017-11-18T08:56:32.496Z,-60
2017-11-18T09:06:33.116Z,-60
2017-11-18T09:16:32.478Z,-60
2017-11-18T09:26:32.593Z,-59
2017-11-18T09:36:32.573Z,-62
2017-11-18T09:46:32.859Z,-63
2017-11-18T09:56:32.640Z,-63
2017-11-18T10:06:33.460Z,-61
2017-11-18T10:16:32.549Z,-67
2017-11-18T10:26:32.647Z,-66
2017-11-18T10:36:32.550Z,-63
2017-11-18T10:46:32.514Z,-64
2017-11-18T10:56:32.592Z,-62
2017-11-18T11:06:32.669Z,-71
2017-11-18T11:16:32.975Z,-65
2017-11-18T11:26:33.517Z,-68
2017-11-18T11:36:33.379Z,-64
2017-11-18T11:46:32.836Z,-64
2017-11-18T11:56:32.864Z,-65
2017-11-18T12:06:32.815Z,-64
2017-11-18T12:16:32.812Z,-66
2017-11-18T12:26:32.807Z,-66
2017-11-18T12:36:32.682Z,-68
2017-11-18T12:46:32.726Z,-63
2017-11-18T12:56:32.713Z,-63
2017-11-18T13:06:32.717Z,-64
2017-11-18T13:16:32.764Z,-63
2017-11-18T13:26:32.733Z,-62
2017-11-18T13:36:32.674Z,-66
2017-11-18T13:46:32.729Z,-65
2017-11-18T13:56:32.858Z,-60
2017-11-18T14:06:32.977Z,-61
2017-11-18T14:16:32.794Z,-64
2017-11-18T14:26:36.157Z,-59
2017-11-18T14:36:32.736Z,-61
2017-11-18T14:46:33.845Z,-60
2017-11-18T14:56:33.751Z,-60
2017-11-18T15:06:32.824Z,-59
2017-11-18T15:16:38.638Z,-61
2017-11-18T15:26:32.763Z,-61
2017-11-18T15:36:32.777Z,-60
2017-11-18T15:46:33.938Z,-60
2017-11-18T15:56:32.805Z,-60
2017-11-18T16:06:33.962Z,-60
2017-11-18T16:16:32.943Z,-59
2017-11-18T16:26:33.905Z,-59
2017-11-18T16:36:34.787Z,-61
2017-11-18T16:46:38.969Z,-60
2017-11-18T16:56:37.862Z,-60
2017-11-18T17:06:32.875Z,-60
2017-11-18T17:16:32.838Z,-60
2017-11-18T17:26:38.479Z,-59
2017-11-18T17:36:35.127Z,-59
2017-11-18T17:46:33.005Z,-58
2017-11-18T17:56:32.988Z,-60
2017-11-18T18:06:33.228Z,-61
2017-11-18T18:16:33.385Z,-61
2017-11-18T18:26:33.173Z,-60
2017-11-18T18:36:34.209Z,-61
2017-11-18T18:46:33.438Z,-61
2017-11-18T18:56:33.500Z,-60
2017-11-18T19:06:33.421Z,-61
2017-11-18T19:16:33.353Z,-60
2017-11-18T19:26:33.271Z,-61
2017-11-18T19:36:33.522Z,-61
2017-11-18T19:46:34.669Z,-60
2017-11-18T19:56:36.983Z,-61
2017-11-18T20:06:34.104Z,-60
2017-11-18T20:16:33.223Z,-61
2017-11-18T20:26:34.351Z,-60
2017-11-18T20:36:33.644Z,-60
2017-11-18T20:46:33.701Z,-59
2017-11-18T20:56:33.478Z,-61
2017-11-18T21:06:33.382Z,-61
2017-11-18T21:16:35.234Z,-60
2017-11-18T21:26:33.205Z,-59
2017-11-18T21:36:33.504Z,-61
2017-11-18T21:46:33.355Z,-60
2017-11-18T21:56:33.385Z,-61
2017-11-18T22:06:33.184Z,-60
2017-11-18T22:16:33.217Z,-61
2017-11-18T22:26:33.123Z,-61
2017-11-18T22:36:33.162Z,-60
2017-11-18T22:46:33.241Z,-59
2017-11-18T22:56:33.810Z,-62
2017-11-18T23:06:34.169Z,-60
2017-11-18T23:16:33.136Z,-59
2017-11-18T23:26:33.194Z,-61
2017-11-18T23:36:34.187Z,-61
2017-11-18T23:46:33.251Z,-60
2017-11-18T23:56:33.263Z,-60
